Ds Blue Wave — A8YK2 — position and weather

sailwx.info

Track history (hours):
 
Tides and Currents Weather Stations Pressure Air Temp Water Temp Dewpoint Dewpoint Depression Visibility Wind Speed Wind Dir Waves Ship Positions

Ds Blue Wave

Last reported at 2018-Jan-23 11:58 UTC. Time now 2018-Jan-23 12:19 UTC.
Position N 35°01' E 136°48'.

Length 129 m; draft 7 m.

Type: Cargo ship. MMSI: 636092200.

Date/timePositionNaut miles runAvg speedWind from/ knotsBaromVisibWave heightAir tempDewpointWater temp
2018-Jan-23 11:58N 35°01' E 136°48'0 0.0
2018-Jan-23 11:28N 35°01' E 136°48'0 0.0
2018-Jan-23 10:58N 35°01' E 136°48'0 0.0
2018-Jan-23 10:28N 35°01' E 136°48'0 0.0
2018-Jan-23 09:58N 35°01' E 136°48'0 0.0
2018-Jan-23 09:28N 35°01' E 136°48'0 0.0
2018-Jan-23 08:58N 35°01' E 136°48'0 0.0
2018-Jan-23 08:28N 35°01' E 136°48'0 0.0
2018-Jan-23 07:58N 35°01' E 136°48'0 0.0
2018-Jan-23 07:28N 35°01' E 136°48'0 0.0
2018-Jan-23 06:58N 35°01' E 136°48'0 0.0
2018-Jan-23 06:28N 35°01' E 136°48'0 0.0
2018-Jan-23 05:58N 35°01' E 136°48'0 0.0
2018-Jan-23 05:28N 35°01' E 136°48'0 0.0
2018-Jan-23 04:58N 35°01' E 136°48'0 0.0
2018-Jan-23 04:28N 35°01' E 136°48'0 0.0
2018-Jan-23 03:55N 35°01' E 136°48'0 0.0
2018-Jan-23 03:25N 35°01' E 136°48'0 0.0
2018-Jan-23 02:58N 35°01' E 136°48'0 0.0
2018-Jan-23 02:28N 35°01' E 136°48'0 0.0
2018-Jan-23 01:55N 35°01' E 136°48'0 0.0
2018-Jan-23 01:28N 35°01' E 136°48'0 0.0
2018-Jan-23 00:58N 35°01' E 136°48'0 0.0
2018-Jan-23 00:28N 35°01' E 136°48'0 0.0
2018-Jan-22 23:58N 35°01' E 136°48'0 0.0
2018-Jan-22 23:28N 35°01' E 136°48'0 1.0
2018-Jan-22 23:00N 35°01' E 136°48'2 5.0
2018-Jan-22 22:30N 34°59' E 136°47'5 9.8
2018-Jan-22 22:00N 34°54' E 136°46'510.7
2018-Jan-22 21:30N 34°49' E 136°46'712.8
2018-Jan-22 20:59N 34°43' E 136°49'10210.2
2018-Jan-22 10:59N 33°46' E 135°07'817.1
2018-Jan-22 10:30N 33°52' E 135°01'917.2
2018-Jan-22 10:00N 34°00' E 134°59'917.8
2018-Jan-22 09:30N 34°09' E 134°59'918.4
2018-Jan-22 09:00N 34°19' E 134°59'917.9
2018-Jan-22 08:30N 34°27' E 135°02'917.5
2018-Jan-22 08:00N 34°36' E 135°03'917.5
2018-Jan-22 07:30N 34°34' E 134°52'917.2
2018-Jan-22 07:00N 34°31' E 134°42'817.1
2018-Jan-22 06:31N 34°28' E 134°33'12015.0
2018-Jan-21 22:30N 33°44' E 132°18'2015.6
2018-Jan-21 21:13N 33°43' E 131°54'416.4
2018-Jan-21 20:59N 33°44' E 131°50'816.7
2018-Jan-21 20:30N 33°46' E 131°41'816.7
2018-Jan-21 20:00N 33°48' E 131°31'816.8
2018-Jan-21 19:30N 33°50' E 131°21'816.9
2018-Jan-21 19:00N 33°52' E 131°11'816.7
2018-Jan-21 18:30N 33°57' E 131°03'612.0
2018-Jan-21 18:00N 33°55' E 130°56'611.6
2018-Jan-21 17:30N 33°59' E 130°50'714.1
2018-Jan-21 17:00N 34°02' E 130°43'816.7
2018-Jan-21 16:30N 34°02' E 130°33'916.6
2018-Jan-21 15:59N 34°02' E 130°23'816.6
2018-Jan-21 15:30N 34°02' E 130°13'49316.2
2018-Jan-20 09:04N 35°60' E 120°28'4 8.3
2018-Jan-20 08:34N 36°01' E 120°23'2 9.6
2018-Jan-20 08:20N 36°01' E 120°20'5 9.5
2018-Jan-20 07:49N 36°02' E 120°14'2 3.3
2018-Jan-20 07:16N 36°01' E 120°13'0 0.0
2018-Jan-20 06:19N 36°01' E 120°13'0 0.0
2018-Jan-20 05:46N 36°01' E 120°13'0 0.0
2018-Jan-20 05:25N 36°01' E 120°13'0 0.0
2018-Jan-20 03:55N 36°01' E 120°13'0 0.0
2018-Jan-20 03:19N 36°01' E 120°13'0 0.0
2018-Jan-20 02:46N 36°01' E 120°13'0 0.0
2018-Jan-20 02:28N 36°01' E 120°13'0 0.0
2018-Jan-20 01:55N 36°01' E 120°13'0 0.0
2018-Jan-20 01:22N 36°01' E 120°13'0 0.0
2018-Jan-20 00:49N 36°01' E 120°13'0 0.0
2018-Jan-19 23:58N 36°01' E 120°13'0 0.0
2018-Jan-19 23:22N 36°01' E 120°13'0 0.0
2018-Jan-19 22:33N 36°01' E 120°13'0 0.0
2018-Jan-19 22:10N 36°01' E 120°13'0 0.0
2018-Jan-19 21:52N 36°01' E 120°13'0 0.0
2018-Jan-19 21:16N 36°01' E 120°13'0 0.0
2018-Jan-19 20:58N 36°01' E 120°13'0 0.0
2018-Jan-19 19:49N 36°01' E 120°13'0 0.0
2018-Jan-19 19:16N 36°01' E 120°13'0 0.0
2018-Jan-19 19:00N 36°01' E 120°13'0 0.0
2018-Jan-19 18:22N 36°01' E 120°13'0 0.0
2018-Jan-19 17:51N 36°01' E 120°13'3 4.1
2018-Jan-19 17:06N 36°02' E 120°16'311.6
2018-Jan-19 16:50N 36°02' E 120°20'  
Track history (hours):
 
Tides and Currents Weather Stations Pressure Air Temp Water Temp Dewpoint Dewpoint Depression Visibility Wind Speed Wind Dir Waves Ship Positions

Ds Blue Wave

Last reported at 2018-Jan-23 11:58 UTC. Time now 2018-Jan-23 12:19 UTC.
Position N 35°01' E 136°48'.

Length 129 m; draft 7 m.

Type: Cargo ship. MMSI: 636092200.

Date/timePositionNaut miles runAvg speedWind from/ knotsBaromVisibWave heightAir tempDewpointWater temp
2018-Jan-23 11:58N 35°01' E 136°48'0 0.0
2018-Jan-23 11:28N 35°01' E 136°48'0 0.0
2018-Jan-23 10:58N 35°01' E 136°48'0 0.0
2018-Jan-23 10:28N 35°01' E 136°48'0 0.0
2018-Jan-23 09:58N 35°01' E 136°48'0 0.0
2018-Jan-23 09:28N 35°01' E 136°48'0 0.0
2018-Jan-23 08:58N 35°01' E 136°48'0 0.0
2018-Jan-23 08:28N 35°01' E 136°48'0 0.0
2018-Jan-23 07:58N 35°01' E 136°48'0 0.0
2018-Jan-23 07:28N 35°01' E 136°48'0 0.0
2018-Jan-23 06:58N 35°01' E 136°48'0 0.0
2018-Jan-23 06:28N 35°01' E 136°48'0 0.0
2018-Jan-23 05:58N 35°01' E 136°48'0 0.0
2018-Jan-23 05:28N 35°01' E 136°48'0 0.0
2018-Jan-23 04:58N 35°01' E 136°48'0 0.0
2018-Jan-23 04:28N 35°01' E 136°48'0 0.0
2018-Jan-23 03:55N 35°01' E 136°48'0 0.0
2018-Jan-23 03:25N 35°01' E 136°48'0 0.0
2018-Jan-23 02:58N 35°01' E 136°48'0 0.0
2018-Jan-23 02:28N 35°01' E 136°48'0 0.0
2018-Jan-23 01:55N 35°01' E 136°48'0 0.0
2018-Jan-23 01:28N 35°01' E 136°48'0 0.0
2018-Jan-23 00:58N 35°01' E 136°48'0 0.0
2018-Jan-23 00:28N 35°01' E 136°48'0 0.0
2018-Jan-22 23:58N 35°01' E 136°48'0 0.0
2018-Jan-22 23:28N 35°01' E 136°48'0 1.0
2018-Jan-22 23:00N 35°01' E 136°48'2 5.0
2018-Jan-22 22:30N 34°59' E 136°47'5 9.8
2018-Jan-22 22:00N 34°54' E 136°46'510.7
2018-Jan-22 21:30N 34°49' E 136°46'712.8
2018-Jan-22 20:59N 34°43' E 136°49'10210.2
2018-Jan-22 10:59N 33°46' E 135°07'817.1
2018-Jan-22 10:30N 33°52' E 135°01'917.2
2018-Jan-22 10:00N 34°00' E 134°59'917.8
2018-Jan-22 09:30N 34°09' E 134°59'918.4
2018-Jan-22 09:00N 34°19' E 134°59'917.9
2018-Jan-22 08:30N 34°27' E 135°02'917.5
2018-Jan-22 08:00N 34°36' E 135°03'917.5
2018-Jan-22 07:30N 34°34' E 134°52'917.2
2018-Jan-22 07:00N 34°31' E 134°42'817.1
2018-Jan-22 06:31N 34°28' E 134°33'12015.0
2018-Jan-21 22:30N 33°44' E 132°18'2015.6
2018-Jan-21 21:13N 33°43' E 131°54'416.4
2018-Jan-21 20:59N 33°44' E 131°50'816.7
2018-Jan-21 20:30N 33°46' E 131°41'816.7
2018-Jan-21 20:00N 33°48' E 131°31'816.8
2018-Jan-21 19:30N 33°50' E 131°21'816.9
2018-Jan-21 19:00N 33°52' E 131°11'816.7
2018-Jan-21 18:30N 33°57' E 131°03'612.0
2018-Jan-21 18:00N 33°55' E 130°56'611.6
2018-Jan-21 17:30N 33°59' E 130°50'714.1
2018-Jan-21 17:00N 34°02' E 130°43'816.7
2018-Jan-21 16:30N 34°02' E 130°33'916.6
2018-Jan-21 15:59N 34°02' E 130°23'816.6
2018-Jan-21 15:30N 34°02' E 130°13'49316.2
2018-Jan-20 09:04N 35°60' E 120°28'4 8.3
2018-Jan-20 08:34N 36°01' E 120°23'2 9.6
2018-Jan-20 08:20N 36°01' E 120°20'5 9.5
2018-Jan-20 07:49N 36°02' E 120°14'2 3.3
2018-Jan-20 07:16N 36°01' E 120°13'0 0.0
2018-Jan-20 06:19N 36°01' E 120°13'0 0.0
2018-Jan-20 05:46N 36°01' E 120°13'0 0.0
2018-Jan-20 05:25N 36°01' E 120°13'0 0.0
2018-Jan-20 03:55N 36°01' E 120°13'0 0.0
2018-Jan-20 03:19N 36°01' E 120°13'0 0.0
2018-Jan-20 02:46N 36°01' E 120°13'0 0.0
2018-Jan-20 02:28N 36°01' E 120°13'0 0.0
2018-Jan-20 01:55N 36°01' E 120°13'0 0.0
2018-Jan-20 01:22N 36°01' E 120°13'0 0.0
2018-Jan-20 00:49N 36°01' E 120°13'0 0.0
2018-Jan-19 23:58N 36°01' E 120°13'0 0.0
2018-Jan-19 23:22N 36°01' E 120°13'0 0.0
2018-Jan-19 22:33N 36°01' E 120°13'0 0.0
2018-Jan-19 22:10N 36°01' E 120°13'0 0.0
2018-Jan-19 21:52N 36°01' E 120°13'0 0.0
2018-Jan-19 21:16N 36°01' E 120°13'0 0.0
2018-Jan-19 20:58N 36°01' E 120°13'0 0.0
2018-Jan-19 19:49N 36°01' E 120°13'0 0.0
2018-Jan-19 19:16N 36°01' E 120°13'0 0.0
2018-Jan-19 19:00N 36°01' E 120°13'0 0.0
2018-Jan-19 18:22N 36°01' E 120°13'0 0.0
2018-Jan-19 17:51N 36°01' E 120°13'3 4.1
2018-Jan-19 17:06N 36°02' E 120°16'311.6
2018-Jan-19 16:50N 36°02' E 120°20'  

Dump ship's entire track history